sensor_id;sensor_type;location;lat;lon;timestamp;P1;durP1;ratioP1;P2;durP2;ratioP2
61038;SDS011;46919;45.816;3.104;2023-04-24T00:00:22;3.08;;;0.60;;
61038;SDS011;46919;45.816;3.104;2023-04-24T00:02:48;3.05;;;0.70;;
61038;SDS011;46919;45.816;3.104;2023-04-24T00:05:14;3.95;;;0.70;;
61038;SDS011;46919;45.816;3.104;2023-04-24T00:07:43;2.85;;;0.73;;
61038;SDS011;46919;45.816;3.104;2023-04-24T00:10:10;1.55;;;0.60;;
61038;SDS011;46919;45.816;3.104;2023-04-24T00:12:36;1.90;;;0.65;;
61038;SDS011;46919;45.816;3.104;2023-04-24T00:15:02;2.30;;;0.55;;
61038;SDS011;46919;45.816;3.104;2023-04-24T00:17:29;2.75;;;0.70;;
61038;SDS011;46919;45.816;3.104;2023-04-24T00:19:54;2.08;;;0.68;;
61038;SDS011;46919;45.816;3.104;2023-04-24T00:22:27;3.08;;;0.80;;
61038;SDS011;46919;45.816;3.104;2023-04-24T00:24:53;1.30;;;0.45;;
61038;SDS011;46919;45.816;3.104;2023-04-24T00:27:19;1.95;;;0.52;;
61038;SDS011;46919;45.816;3.104;2023-04-24T00:29:45;0.85;;;0.40;;
61038;SDS011;46919;45.816;3.104;2023-04-24T00:32:10;3.10;;;0.55;;
61038;SDS011;46919;45.816;3.104;2023-04-24T00:34:36;1.42;;;0.52;;
61038;SDS011;46919;45.816;3.104;2023-04-24T00:37:01;0.70;;;0.30;;
61038;SDS011;46919;45.816;3.104;2023-04-24T00:39:27;3.15;;;0.57;;
61038;SDS011;46919;45.816;3.104;2023-04-24T00:41:52;2.72;;;0.60;;
61038;SDS011;46919;45.816;3.104;2023-04-24T00:44:18;0.85;;;0.40;;
61038;SDS011;46919;45.816;3.104;2023-04-24T00:46:44;0.85;;;0.43;;
61038;SDS011;46919;45.816;3.104;2023-04-24T00:49:11;2.40;;;0.50;;
61038;SDS011;46919;45.816;3.104;2023-04-24T00:51:37;1.80;;;0.60;;
61038;SDS011;46919;45.816;3.104;2023-04-24T00:54:02;0.20;;;0.15;;
61038;SDS011;46919;45.816;3.104;2023-04-24T00:56:28;0.38;;;0.25;;
61038;SDS011;46919;45.816;3.104;2023-04-24T00:58:54;3.20;;;0.50;;
61038;SDS011;46919;45.816;3.104;2023-04-24T01:01:20;1.75;;;0.22;;
61038;SDS011;46919;45.816;3.104;2023-04-24T01:03:47;1.08;;;0.20;;
61038;SDS011;46919;45.816;3.104;2023-04-24T01:06:14;0.45;;;0.30;;
61038;SDS011;46919;45.816;3.104;2023-04-24T01:08:40;0.50;;;0.20;;
61038;SDS011;46919;45.816;3.104;2023-04-24T01:11:06;1.17;;;0.57;;
61038;SDS011;46919;45.816;3.104;2023-04-24T01:13:32;0.75;;;0.38;;
61038;SDS011;46919;45.816;3.104;2023-04-24T01:15:59;1.38;;;0.22;;
61038;SDS011;46919;45.816;3.104;2023-04-24T01:18:25;0.55;;;0.20;;
61038;SDS011;46919;45.816;3.104;2023-04-24T01:20:53;1.00;;;0.10;;
61038;SDS011;46919;45.816;3.104;2023-04-24T01:23:21;1.33;;;0.20;;
61038;SDS011;46919;45.816;3.104;2023-04-24T01:25:47;0.95;;;0.20;;
61038;SDS011;46919;45.816;3.104;2023-04-24T01:28:13;0.60;;;0.20;;
61038;SDS011;46919;45.816;3.104;2023-04-24T01:30:39;0.38;;;0.10;;
61038;SDS011;46919;45.816;3.104;2023-04-24T01:33:05;0.73;;;0.20;;
61038;SDS011;46919;45.816;3.104;2023-04-24T01:35:30;0.10;;;0.10;;
61038;SDS011;46919;45.816;3.104;2023-04-24T01:37:56;0.40;;;0.10;;
61038;SDS011;46919;45.816;3.104;2023-04-24T01:40:22;0.63;;;0.20;;
61038;SDS011;46919;45.816;3.104;2023-04-24T01:42:47;1.42;;;0.40;;
61038;SDS011;46919;45.816;3.104;2023-04-24T01:45:13;1.05;;;0.30;;
61038;SDS011;46919;45.816;3.104;2023-04-24T01:47:38;0.15;;;0.13;;
61038;SDS011;46919;45.816;3.104;2023-04-24T01:50:05;4.78;;;0.32;;
61038;SDS011;46919;45.816;3.104;2023-04-24T01:52:31;0.82;;;0.30;;
61038;SDS011;46919;45.816;3.104;2023-04-24T01:55:01;1.40;;;0.68;;
61038;SDS011;46919;45.816;3.104;2023-04-24T01:57:27;2.78;;;0.32;;
61038;SDS011;46919;45.816;3.104;2023-04-24T01:59:52;0.90;;;0.30;;
61038;SDS011;46919;45.816;3.104;2023-04-24T02:02:18;1.60;;;0.40;;
61038;SDS011;46919;45.816;3.104;2023-04-24T02:04:48;2.42;;;0.40;;
61038;SDS011;46919;45.816;3.104;2023-04-24T02:07:13;0.85;;;0.40;;
61038;SDS011;46919;45.816;3.104;2023-04-24T02:09:38;1.23;;;0.40;;
61038;SDS011;46919;45.816;3.104;2023-04-24T02:12:04;0.77;;;0.20;;
61038;SDS011;46919;45.816;3.104;2023-04-24T02:14:29;3.03;;;0.70;;
61038;SDS011;46919;45.816;3.104;2023-04-24T02:16:55;1.80;;;0.32;;
61038;SDS011;46919;45.816;3.104;2023-04-24T02:19:20;3.67;;;0.50;;
61038;SDS011;46919;45.816;3.104;2023-04-24T02:21:45;1.35;;;0.30;;
61038;SDS011;46919;45.816;3.104;2023-04-24T02:24:11;1.55;;;0.70;;
61038;SDS011;46919;45.816;3.104;2023-04-24T02:26:36;1.67;;;0.50;;
61038;SDS011;46919;45.816;3.104;2023-04-24T02:29:02;1.05;;;0.40;;
61038;SDS011;46919;45.816;3.104;2023-04-24T02:31:27;1.17;;;0.38;;
61038;SDS011;46919;45.816;3.104;2023-04-24T02:33:53;1.30;;;0.40;;
61038;SDS011;46919;45.816;3.104;2023-04-24T02:36:18;1.15;;;0.43;;
61038;SDS011;46919;45.816;3.104;2023-04-24T02:38:43;1.58;;;0.40;;
61038;SDS011;46919;45.816;3.104;2023-04-24T02:41:09;1.67;;;0.40;;
61038;SDS011;46919;45.816;3.104;2023-04-24T02:43:34;2.63;;;0.65;;
61038;SDS011;46919;45.816;3.104;2023-04-24T02:46:00;1.15;;;0.47;;
61038;SDS011;46919;45.816;3.104;2023-04-24T02:48:25;2.47;;;0.68;;
61038;SDS011;46919;45.816;3.104;2023-04-24T02:50:51;0.70;;;0.50;;
61038;SDS011;46919;45.816;3.104;2023-04-24T02:53:16;2.47;;;0.50;;
61038;SDS011;46919;45.816;3.104;2023-04-24T02:55:42;1.10;;;0.70;;
61038;SDS011;46919;45.816;3.104;2023-04-24T02:58:07;1.73;;;0.50;;
61038;SDS011;46919;45.816;3.104;2023-04-24T03:00:33;2.72;;;0.50;;
61038;SDS011;46919;45.816;3.104;2023-04-24T03:02:58;1.55;;;0.47;;
61038;SDS011;46919;45.816;3.104;2023-04-24T03:05:23;1.55;;;0.50;;
61038;SDS011;46919;45.816;3.104;2023-04-24T03:07:49;2.50;;;0.50;;
61038;SDS011;46919;45.816;3.104;2023-04-24T03:10:14;1.58;;;0.60;;
61038;SDS011;46919;45.816;3.104;2023-04-24T03:12:40;2.58;;;0.75;;
61038;SDS011;46919;45.816;3.104;2023-04-24T03:15:06;1.85;;;0.60;;
61038;SDS011;46919;45.816;3.104;2023-04-24T03:17:32;2.60;;;0.80;;
61038;SDS011;46919;45.816;3.104;2023-04-24T03:19:57;3.45;;;0.80;;
61038;SDS011;46919;45.816;3.104;2023-04-24T03:22:23;2.80;;;0.80;;
61038;SDS011;46919;45.816;3.104;2023-04-24T03:24:48;2.25;;;0.60;;
61038;SDS011;46919;45.816;3.104;2023-04-24T03:27:14;2.90;;;0.93;;
61038;SDS011;46919;45.816;3.104;2023-04-24T03:29:39;4.85;;;0.77;;
61038;SDS011;46919;45.816;3.104;2023-04-24T03:32:05;1.85;;;0.73;;
61038;SDS011;46919;45.816;3.104;2023-04-24T03:34:30;1.80;;;0.77;;
61038;SDS011;46919;45.816;3.104;2023-04-24T03:36:56;3.58;;;0.80;;
61038;SDS011;46919;45.816;3.104;2023-04-24T03:39:21;1.17;;;0.70;;
61038;SDS011;46919;45.816;3.104;2023-04-24T03:41:47;1.48;;;0.82;;
61038;SDS011;46919;45.816;3.104;2023-04-24T03:44:12;3.50;;;0.80;;
61038;SDS011;46919;45.816;3.104;2023-04-24T03:46:37;3.10;;;0.90;;
61038;SDS011;46919;45.816;3.104;2023-04-24T03:49:06;3.28;;;0.90;;
61038;SDS011;46919;45.816;3.104;2023-04-24T03:51:31;4.90;;;1.23;;
61038;SDS011;46919;45.816;3.104;2023-04-24T03:53:57;2.58;;;1.55;;
61038;SDS011;46919;45.816;3.104;2023-04-24T03:56:22;2.00;;;0.75;;
61038;SDS011;46919;45.816;3.104;2023-04-24T03:58:47;2.08;;;0.90;;
61038;SDS011;46919;45.816;3.104;2023-04-24T04:01:13;3.15;;;1.10;;
61038;SDS011;46919;45.816;3.104;2023-04-24T04:03:40;3.08;;;1.02;;
61038;SDS011;46919;45.816;3.104;2023-04-24T04:06:06;2.63;;;1.00;;
61038;SDS011;46919;45.816;3.104;2023-04-24T04:08:31;2.55;;;1.08;;
61038;SDS011;46919;45.816;3.104;2023-04-24T04:10:57;2.00;;;0.95;;
61038;SDS011;46919;45.816;3.104;2023-04-24T04:13:22;2.92;;;1.08;;
61038;SDS011;46919;45.816;3.104;2023-04-24T04:15:48;2.42;;;0.98;;
61038;SDS011;46919;45.816;3.104;2023-04-24T04:18:13;2.90;;;1.10;;
61038;SDS011;46919;45.816;3.104;2023-04-24T04:20:38;2.00;;;1.05;;
61038;SDS011;46919;45.816;3.104;2023-04-24T04:23:04;3.70;;;1.15;;
61038;SDS011;46919;45.816;3.104;2023-04-24T04:25:29;3.92;;;1.15;;
61038;SDS011;46919;45.816;3.104;2023-04-24T04:27:55;2.97;;;0.93;;
61038;SDS011;46919;45.816;3.104;2023-04-24T04:30:20;3.08;;;1.40;;
61038;SDS011;46919;45.816;3.104;2023-04-24T04:32:46;2.90;;;1.27;;
61038;SDS011;46919;45.816;3.104;2023-04-24T04:35:12;1.45;;;1.13;;
61038;SDS011;46919;45.816;3.104;2023-04-24T04:37:37;3.28;;;1.00;;
61038;SDS011;46919;45.816;3.104;2023-04-24T04:40:03;2.08;;;0.90;;
61038;SDS011;46919;45.816;3.104;2023-04-24T04:42:32;6.43;;;1.00;;
61038;SDS011;46919;45.816;3.104;2023-04-24T04:44:59;3.95;;;1.10;;
61038;SDS011;46919;45.816;3.104;2023-04-24T04:47:25;3.38;;;1.10;;
61038;SDS011;46919;45.816;3.104;2023-04-24T04:49:52;3.78;;;1.38;;
61038;SDS011;46919;45.816;3.104;2023-04-24T04:52:17;3.47;;;1.20;;
61038;SDS011;46919;45.816;3.104;2023-04-24T04:54:43;4.10;;;1.40;;
61038;SDS011;46919;45.816;3.104;2023-04-24T04:57:09;5.53;;;1.15;;
61038;SDS011;46919;45.816;3.104;2023-04-24T04:59:35;3.17;;;0.90;;
61038;SDS011;46919;45.816;3.104;2023-04-24T05:02:00;3.25;;;1.67;;
61038;SDS011;46919;45.816;3.104;2023-04-24T05:04:26;5.60;;;1.63;;
61038;SDS011;46919;45.816;3.104;2023-04-24T05:06:51;4.00;;;1.38;;
61038;SDS011;46919;45.816;3.104;2023-04-24T05:09:17;6.32;;;1.20;;
61038;SDS011;46919;45.816;3.104;2023-04-24T05:11:43;3.95;;;1.10;;
61038;SDS011;46919;45.816;3.104;2023-04-24T05:14:08;3.10;;;1.40;;
61038;SDS011;46919;45.816;3.104;2023-04-24T05:16:34;2.55;;;1.10;;
61038;SDS011;46919;45.816;3.104;2023-04-24T05:18:59;2.65;;;1.20;;
61038;SDS011;46919;45.816;3.104;2023-04-24T05:21:25;3.72;;;1.10;;
61038;SDS011;46919;45.816;3.104;2023-04-24T05:23:51;3.17;;;1.30;;
61038;SDS011;46919;45.816;3.104;2023-04-24T05:26:17;3.28;;;1.17;;
61038;SDS011;46919;45.816;3.104;2023-04-24T05:28:42;3.28;;;1.60;;
61038;SDS011;46919;45.816;3.104;2023-04-24T05:31:08;2.03;;;1.23;;
61038;SDS011;46919;45.816;3.104;2023-04-24T05:33:33;5.00;;;1.30;;
61038;SDS011;46919;45.816;3.104;2023-04-24T05:35:59;2.30;;;1.30;;
61038;SDS011;46919;45.816;3.104;2023-04-24T05:38:24;3.55;;;1.48;;
61038;SDS011;46919;45.816;3.104;2023-04-24T05:40:50;4.65;;;1.38;;
61038;SDS011;46919;45.816;3.104;2023-04-24T05:43:15;4.32;;;1.33;;
61038;SDS011;46919;45.816;3.104;2023-04-24T05:45:40;3.63;;;1.40;;
61038;SDS011;46919;45.816;3.104;2023-04-24T05:48:06;3.97;;;1.20;;
61038;SDS011;46919;45.816;3.104;2023-04-24T05:50:31;2.75;;;1.60;;
61038;SDS011;46919;45.816;3.104;2023-04-24T05:52:57;2.70;;;1.20;;
61038;SDS011;46919;45.816;3.104;2023-04-24T05:55:26;7.35;;;1.40;;
61038;SDS011;46919;45.816;3.104;2023-04-24T05:57:52;3.90;;;1.20;;
61038;SDS011;46919;45.816;3.104;2023-04-24T06:00:18;2.40;;;1.27;;
61038;SDS011;46919;45.816;3.104;2023-04-24T06:02:47;4.10;;;1.40;;
61038;SDS011;46919;45.816;3.104;2023-04-24T06:05:12;2.30;;;1.40;;
61038;SDS011;46919;45.816;3.104;2023-04-24T06:07:38;2.88;;;1.20;;
61038;SDS011;46919;45.816;3.104;2023-04-24T06:10:03;3.10;;;1.27;;
61038;SDS011;46919;45.816;3.104;2023-04-24T06:12:29;4.47;;;1.48;;
61038;SDS011;46919;45.816;3.104;2023-04-24T06:14:55;2.65;;;1.10;;
61038;SDS011;46919;45.816;3.104;2023-04-24T06:17:21;4.20;;;1.30;;
61038;SDS011;46919;45.816;3.104;2023-04-24T06:19:46;4.35;;;1.10;;
61038;SDS011;46919;45.816;3.104;2023-04-24T06:22:12;6.05;;;1.70;;
61038;SDS011;46919;45.816;3.104;2023-04-24T06:24:37;5.30;;;1.23;;
61038;SDS011;46919;45.816;3.104;2023-04-24T06:27:02;1.88;;;1.60;;
61038;SDS011;46919;45.816;3.104;2023-04-24T06:29:28;5.00;;;1.88;;
61038;SDS011;46919;45.816;3.104;2023-04-24T06:31:53;3.20;;;1.52;;
61038;SDS011;46919;45.816;3.104;2023-04-24T06:34:19;3.30;;;1.50;;
61038;SDS011;46919;45.816;3.104;2023-04-24T06:36:44;3.35;;;1.15;;
61038;SDS011;46919;45.816;3.104;2023-04-24T06:39:10;2.70;;;1.20;;
61038;SDS011;46919;45.816;3.104;2023-04-24T06:41:35;5.57;;;1.45;;
61038;SDS011;46919;45.816;3.104;2023-04-24T06:44:01;5.50;;;1.90;;
61038;SDS011;46919;45.816;3.104;2023-04-24T06:46:26;4.53;;;1.63;;
61038;SDS011;46919;45.816;3.104;2023-04-24T06:48:53;3.38;;;1.27;;
61038;SDS011;46919;45.816;3.104;2023-04-24T06:51:24;6.13;;;1.50;;
61038;SDS011;46919;45.816;3.104;2023-04-24T06:53:54;4.88;;;1.52;;
61038;SDS011;46919;45.816;3.104;2023-04-24T06:56:21;3.08;;;1.20;;
61038;SDS011;46919;45.816;3.104;2023-04-24T06:58:47;4.60;;;1.50;;
61038;SDS011;46919;45.816;3.104;2023-04-24T07:01:13;3.47;;;1.40;;
61038;SDS011;46919;45.816;3.104;2023-04-24T07:03:38;5.60;;;1.70;;
61038;SDS011;46919;45.816;3.104;2023-04-24T07:06:04;4.35;;;1.42;;
61038;SDS011;46919;45.816;3.104;2023-04-24T07:08:30;3.67;;;1.30;;
61038;SDS011;46919;45.816;3.104;2023-04-24T07:10:56;4.60;;;1.45;;
61038;SDS011;46919;45.816;3.104;2023-04-24T07:13:22;4.60;;;1.50;;
61038;SDS011;46919;45.816;3.104;2023-04-24T07:15:48;2.33;;;1.10;;
61038;SDS011;46919;45.816;3.104;2023-04-24T07:18:15;1.83;;;1.20;;
61038;SDS011;46919;45.816;3.104;2023-04-24T07:20:41;4.10;;;1.27;;
61038;SDS011;46919;45.816;3.104;2023-04-24T07:23:06;6.68;;;1.40;;
61038;SDS011;46919;45.816;3.104;2023-04-24T07:25:32;5.40;;;1.20;;
61038;SDS011;46919;45.816;3.104;2023-04-24T07:27:58;5.00;;;1.65;;
61038;SDS011;46919;45.816;3.104;2023-04-24T07:30:23;4.32;;;1.60;;
61038;SDS011;46919;45.816;3.104;2023-04-24T07:32:49;5.53;;;1.40;;
61038;SDS011;46919;45.816;3.104;2023-04-24T07:35:14;1.75;;;1.10;;
61038;SDS011;46919;45.816;3.104;2023-04-24T07:37:39;3.17;;;1.30;;
61038;SDS011;46919;45.816;3.104;2023-04-24T07:40:10;2.58;;;1.55;;
61038;SDS011;46919;45.816;3.104;2023-04-24T07:42:39;3.50;;;1.48;;
61038;SDS011;46919;45.816;3.104;2023-04-24T07:45:05;2.80;;;1.20;;
61038;SDS011;46919;45.816;3.104;2023-04-24T07:47:31;3.88;;;1.50;;
61038;SDS011;46919;45.816;3.104;2023-04-24T07:49:57;2.53;;;1.30;;
61038;SDS011;46919;45.816;3.104;2023-04-24T07:52:24;3.05;;;1.10;;
61038;SDS011;46919;45.816;3.104;2023-04-24T07:54:50;3.47;;;1.48;;
61038;SDS011;46919;45.816;3.104;2023-04-24T07:57:15;3.03;;;1.10;;
61038;SDS011;46919;45.816;3.104;2023-04-24T07:59:41;2.40;;;1.30;;
61038;SDS011;46919;45.816;3.104;2023-04-24T08:02:07;5.63;;;1.30;;
61038;SDS011;46919;45.816;3.104;2023-04-24T08:04:33;2.85;;;1.25;;
61038;SDS011;46919;45.816;3.104;2023-04-24T08:06:58;4.72;;;1.48;;
61038;SDS011;46919;45.816;3.104;2023-04-24T08:09:23;6.90;;;1.33;;
61038;SDS011;46919;45.816;3.104;2023-04-24T08:11:49;4.85;;;1.13;;
61038;SDS011;46919;45.816;3.104;2023-04-24T08:14:14;4.90;;;1.50;;
61038;SDS011;46919;45.816;3.104;2023-04-24T08:16:40;3.53;;;1.20;;
61038;SDS011;46919;45.816;3.104;2023-04-24T08:19:06;2.55;;;1.17;;
61038;SDS011;46919;45.816;3.104;2023-04-24T08:21:32;5.55;;;1.30;;
61038;SDS011;46919;45.816;3.104;2023-04-24T08:23:57;3.33;;;1.33;;
61038;SDS011;46919;45.816;3.104;2023-04-24T08:26:23;4.95;;;1.30;;
61038;SDS011;46919;45.816;3.104;2023-04-24T08:28:48;3.45;;;1.40;;
61038;SDS011;46919;45.816;3.104;2023-04-24T08:31:14;4.18;;;1.20;;
61038;SDS011;46919;45.816;3.104;2023-04-24T08:33:39;2.45;;;1.23;;
61038;SDS011;46919;45.816;3.104;2023-04-24T08:36:06;4.72;;;1.52;;
61038;SDS011;46919;45.816;3.104;2023-04-24T08:38:32;5.00;;;1.60;;
61038;SDS011;46919;45.816;3.104;2023-04-24T08:40:58;4.93;;;1.50;;
61038;SDS011;46919;45.816;3.104;2023-04-24T08:43:25;5.13;;;1.70;;
61038;SDS011;46919;45.816;3.104;2023-04-24T08:45:51;4.20;;;1.90;;
61038;SDS011;46919;45.816;3.104;2023-04-24T08:48:17;2.80;;;1.45;;
61038;SDS011;46919;45.816;3.104;2023-04-24T08:50:43;5.00;;;1.83;;
61038;SDS011;46919;45.816;3.104;2023-04-24T08:53:09;2.22;;;1.60;;
61038;SDS011;46919;45.816;3.104;2023-04-24T08:55:36;5.07;;;1.65;;
61038;SDS011;46919;45.816;3.104;2023-04-24T08:58:03;4.22;;;1.48;;
61038;SDS011;46919;45.816;3.104;2023-04-24T09:00:28;3.78;;;1.20;;
61038;SDS011;46919;45.816;3.104;2023-04-24T09:02:55;6.10;;;1.63;;
61038;SDS011;46919;45.816;3.104;2023-04-24T09:05:21;4.93;;;1.42;;
61038;SDS011;46919;45.816;3.104;2023-04-24T09:07:55;6.70;;;1.83;;
61038;SDS011;46919;45.816;3.104;2023-04-24T09:10:22;5.05;;;1.58;;
61038;SDS011;46919;45.816;3.104;2023-04-24T09:12:49;4.03;;;1.40;;
61038;SDS011;46919;45.816;3.104;2023-04-24T09:15:16;5.38;;;1.58;;
61038;SDS011;46919;45.816;3.104;2023-04-24T09:17:42;4.72;;;1.50;;
61038;SDS011;46919;45.816;3.104;2023-04-24T09:20:08;4.53;;;1.50;;
61038;SDS011;46919;45.816;3.104;2023-04-24T09:22:34;2.88;;;1.15;;
61038;SDS011;46919;45.816;3.104;2023-04-24T09:25:06;3.75;;;1.30;;
61038;SDS011;46919;45.816;3.104;2023-04-24T09:27:33;4.97;;;1.70;;
61038;SDS011;46919;45.816;3.104;2023-04-24T09:29:59;5.95;;;1.70;;
61038;SDS011;46919;45.816;3.104;2023-04-24T09:32:24;4.40;;;1.70;;
61038;SDS011;46919;45.816;3.104;2023-04-24T09:35:04;3.08;;;1.50;;
61038;SDS011;46919;45.816;3.104;2023-04-24T09:37:36;4.22;;;1.60;;
61038;SDS011;46919;45.816;3.104;2023-04-24T09:40:11;8.90;;;1.60;;
61038;SDS011;46919;45.816;3.104;2023-04-24T09:42:38;4.95;;;1.58;;
61038;SDS011;46919;45.816;3.104;2023-04-24T09:45:13;5.05;;;1.60;;
61038;SDS011;46919;45.816;3.104;2023-04-24T09:47:39;3.90;;;1.45;;
61038;SDS011;46919;45.816;3.104;2023-04-24T09:50:09;2.58;;;1.27;;
61038;SDS011;46919;45.816;3.104;2023-04-24T09:55:12;5.80;;;1.63;;
61038;SDS011;46919;45.816;3.104;2023-04-24T09:57:51;5.15;;;2.15;;
61038;SDS011;46919;45.816;3.104;2023-04-24T10:00:29;4.20;;;1.88;;
61038;SDS011;46919;45.816;3.104;2023-04-24T10:02:56;7.20;;;1.83;;
61038;SDS011;46919;45.816;3.104;2023-04-24T10:05:23;2.75;;;1.30;;
61038;SDS011;46919;45.816;3.104;2023-04-24T10:08:02;4.47;;;1.80;;
61038;SDS011;46919;45.816;3.104;2023-04-24T10:10:30;4.68;;;1.60;;
61038;SDS011;46919;45.816;3.104;2023-04-24T10:12:56;3.60;;;1.70;;
61038;SDS011;46919;45.816;3.104;2023-04-24T10:15:22;3.90;;;1.60;;
61038;SDS011;46919;45.816;3.104;2023-04-24T10:17:48;3.53;;;1.80;;
61038;SDS011;46919;45.816;3.104;2023-04-24T10:20:21;3.80;;;1.70;;
61038;SDS011;46919;45.816;3.104;2023-04-24T10:22:48;6.57;;;1.63;;
61038;SDS011;46919;45.816;3.104;2023-04-24T10:25:19;2.13;;;1.52;;
61038;SDS011;46919;45.816;3.104;2023-04-24T10:27:46;4.00;;;1.88;;
61038;SDS011;46919;45.816;3.104;2023-04-24T10:30:12;5.90;;;1.92;;
61038;SDS011;46919;45.816;3.104;2023-04-24T10:32:38;4.57;;;1.45;;
61038;SDS011;46919;45.816;3.104;2023-04-24T10:35:05;3.95;;;1.70;;
61038;SDS011;46919;45.816;3.104;2023-04-24T10:37:44;4.53;;;1.90;;
61038;SDS011;46919;45.816;3.104;2023-04-24T10:40:11;4.53;;;1.58;;
61038;SDS011;46919;45.816;3.104;2023-04-24T10:42:43;5.80;;;2.38;;
61038;SDS011;46919;45.816;3.104;2023-04-24T10:45:18;6.72;;;2.30;;
61038;SDS011;46919;45.816;3.104;2023-04-24T10:50:26;4.57;;;1.77;;
61038;SDS011;46919;45.816;3.104;2023-04-24T10:52:53;5.22;;;1.98;;
61038;SDS011;46919;45.816;3.104;2023-04-24T10:55:42;3.05;;;1.42;;
61038;SDS011;46919;45.816;3.104;2023-04-24T10:58:09;3.38;;;1.70;;
61038;SDS011;46919;45.816;3.104;2023-04-24T11:00:37;6.95;;;1.95;;
61038;SDS011;46919;45.816;3.104;2023-04-24T11:03:12;3.97;;;1.70;;
61038;SDS011;46919;45.816;3.104;2023-04-24T11:05:50;4.88;;;1.95;;
61038;SDS011;46919;45.816;3.104;2023-04-24T11:10:56;4.93;;;1.67;;
61038;SDS011;46919;45.816;3.104;2023-04-24T11:13:23;4.53;;;2.08;;
61038;SDS011;46919;45.816;3.104;2023-04-24T11:18:45;5.38;;;1.67;;
61038;SDS011;46919;45.816;3.104;2023-04-24T11:21:16;6.63;;;1.75;;
61038;SDS011;46919;45.816;3.104;2023-04-24T11:23:42;4.83;;;1.77;;
61038;SDS011;46919;45.816;3.104;2023-04-24T11:26:18;3.33;;;1.63;;
61038;SDS011;46919;45.816;3.104;2023-04-24T11:28:49;5.05;;;1.90;;
61038;SDS011;46919;45.816;3.104;2023-04-24T11:31:34;3.33;;;1.38;;
61038;SDS011;46919;45.816;3.104;2023-04-24T11:36:39;5.18;;;1.75;;
61038;SDS011;46919;45.816;3.104;2023-04-24T11:39:07;4.20;;;1.90;;
61038;SDS011;46919;45.816;3.104;2023-04-24T11:41:33;5.93;;;1.50;;
61038;SDS011;46919;45.816;3.104;2023-04-24T11:44:00;6.47;;;1.50;;
61038;SDS011;46919;45.816;3.104;2023-04-24T11:46:27;3.70;;;1.95;;
61038;SDS011;46919;45.816;3.104;2023-04-24T11:48:53;5.38;;;1.65;;
61038;SDS011;46919;45.816;3.104;2023-04-24T11:51:19;4.40;;;1.70;;
61038;SDS011;46919;45.816;3.104;2023-04-24T11:53:44;11.32;;;1.95;;
61038;SDS011;46919;45.816;3.104;2023-04-24T11:56:10;3.33;;;1.65;;
61038;SDS011;46919;45.816;3.104;2023-04-24T11:58:35;6.30;;;1.80;;
61038;SDS011;46919;45.816;3.104;2023-04-24T12:01:03;4.43;;;1.40;;
61038;SDS011;46919;45.816;3.104;2023-04-24T12:03:29;6.13;;;1.75;;
61038;SDS011;46919;45.816;3.104;2023-04-24T12:06:04;6.00;;;1.73;;
61038;SDS011;46919;45.816;3.104;2023-04-24T12:08:32;3.78;;;1.52;;
61038;SDS011;46919;45.816;3.104;2023-04-24T12:10:59;3.58;;;1.58;;
61038;SDS011;46919;45.816;3.104;2023-04-24T12:13:25;4.68;;;1.60;;
61038;SDS011;46919;45.816;3.104;2023-04-24T12:15:51;4.20;;;1.45;;
61038;SDS011;46919;45.816;3.104;2023-04-24T12:18:17;6.13;;;1.67;;
61038;SDS011;46919;45.816;3.104;2023-04-24T12:20:42;3.25;;;1.70;;
61038;SDS011;46919;45.816;3.104;2023-04-24T12:23:08;8.80;;;1.42;;
61038;SDS011;46919;45.816;3.104;2023-04-24T12:25:33;5.32;;;1.75;;
61038;SDS011;46919;45.816;3.104;2023-04-24T12:30:31;3.67;;;1.50;;
61038;SDS011;46919;45.816;3.104;2023-04-24T12:32:58;3.00;;;1.33;;
61038;SDS011;46919;45.816;3.104;2023-04-24T12:35:26;4.50;;;1.77;;
61038;SDS011;46919;45.816;3.104;2023-04-24T12:37:53;5.57;;;1.60;;
61038;SDS011;46919;45.816;3.104;2023-04-24T12:40:20;4.90;;;1.60;;
61038;SDS011;46919;45.816;3.104;2023-04-24T12:42:47;5.18;;;1.65;;
61038;SDS011;46919;45.816;3.104;2023-04-24T12:45:14;4.53;;;1.55;;
61038;SDS011;46919;45.816;3.104;2023-04-24T12:47:41;5.47;;;1.85;;
61038;SDS011;46919;45.816;3.104;2023-04-24T12:50:08;3.58;;;1.77;;
61038;SDS011;46919;45.816;3.104;2023-04-24T12:52:35;5.15;;;1.95;;
61038;SDS011;46919;45.816;3.104;2023-04-24T12:55:01;6.00;;;2.03;;
61038;SDS011;46919;45.816;3.104;2023-04-24T12:57:28;5.75;;;1.77;;
61038;SDS011;46919;45.816;3.104;2023-04-24T12:59:55;6.03;;;1.90;;
61038;SDS011;46919;45.816;3.104;2023-04-24T13:02:22;4.72;;;1.60;;
61038;SDS011;46919;45.816;3.104;2023-04-24T13:04:48;6.65;;;2.00;;
61038;SDS011;46919;45.816;3.104;2023-04-24T13:07:14;4.18;;;1.63;;
61038;SDS011;46919;45.816;3.104;2023-04-24T13:09:40;4.47;;;1.60;;
61038;SDS011;46919;45.816;3.104;2023-04-24T13:12:07;5.03;;;1.95;;
61038;SDS011;46919;45.816;3.104;2023-04-24T13:14:33;6.00;;;1.77;;
61038;SDS011;46919;45.816;3.104;2023-04-24T13:16:58;5.82;;;1.73;;
61038;SDS011;46919;45.816;3.104;2023-04-24T13:19:24;6.45;;;1.70;;
61038;SDS011;46919;45.816;3.104;2023-04-24T13:21:54;5.50;;;1.80;;
61038;SDS011;46919;45.816;3.104;2023-04-24T13:24:24;4.80;;;1.77;;
61038;SDS011;46919;45.816;3.104;2023-04-24T13:26:50;5.18;;;1.40;;
61038;SDS011;46919;45.816;3.104;2023-04-24T13:29:16;4.30;;;1.67;;
61038;SDS011;46919;45.816;3.104;2023-04-24T13:31:41;4.90;;;2.10;;
61038;SDS011;46919;45.816;3.104;2023-04-24T13:34:07;5.47;;;1.55;;
61038;SDS011;46919;45.816;3.104;2023-04-24T13:36:32;4.10;;;1.40;;
61038;SDS011;46919;45.816;3.104;2023-04-24T13:38:58;5.25;;;1.30;;
61038;SDS011;46919;45.816;3.104;2023-04-24T13:41:23;5.90;;;1.40;;
61038;SDS011;46919;45.816;3.104;2023-04-24T13:43:49;5.30;;;1.60;;
61038;SDS011;46919;45.816;3.104;2023-04-24T13:46:15;2.95;;;1.33;;
61038;SDS011;46919;45.816;3.104;2023-04-24T13:48:41;3.42;;;1.48;;
61038;SDS011;46919;45.816;3.104;2023-04-24T13:51:06;5.25;;;1.52;;
61038;SDS011;46919;45.816;3.104;2023-04-24T13:53:32;7.32;;;1.73;;
61038;SDS011;46919;45.816;3.104;2023-04-24T13:56:01;4.72;;;1.60;;
61038;SDS011;46919;45.816;3.104;2023-04-24T13:58:27;5.95;;;1.80;;
61038;SDS011;46919;45.816;3.104;2023-04-24T14:00:52;5.93;;;1.80;;
61038;SDS011;46919;45.816;3.104;2023-04-24T14:03:18;4.18;;;1.60;;
61038;SDS011;46919;45.816;3.104;2023-04-24T14:05:43;2.97;;;1.45;;
61038;SDS011;46919;45.816;3.104;2023-04-24T14:08:08;2.40;;;1.52;;
61038;SDS011;46919;45.816;3.104;2023-04-24T14:10:34;4.22;;;1.77;;
61038;SDS011;46919;45.816;3.104;2023-04-24T14:12:59;5.78;;;1.58;;
61038;SDS011;46919;45.816;3.104;2023-04-24T14:15:25;6.03;;;1.60;;
61038;SDS011;46919;45.816;3.104;2023-04-24T14:17:50;6.68;;;1.65;;
61038;SDS011;46919;45.816;3.104;2023-04-24T14:20:16;5.72;;;1.65;;
61038;SDS011;46919;45.816;3.104;2023-04-24T14:22:41;5.35;;;1.92;;
61038;SDS011;46919;45.816;3.104;2023-04-24T14:25:07;5.63;;;1.80;;
61038;SDS011;46919;45.816;3.104;2023-04-24T14:27:33;4.78;;;1.58;;
61038;SDS011;46919;45.816;3.104;2023-04-24T14:29:59;4.25;;;1.98;;
61038;SDS011;46919;45.816;3.104;2023-04-24T14:32:25;4.70;;;1.45;;
61038;SDS011;46919;45.816;3.104;2023-04-24T14:34:50;4.28;;;1.70;;
61038;SDS011;46919;45.816;3.104;2023-04-24T14:37:16;7.93;;;1.65;;
61038;SDS011;46919;45.816;3.104;2023-04-24T14:39:42;4.38;;;1.55;;
61038;SDS011;46919;45.816;3.104;2023-04-24T14:42:07;4.72;;;1.52;;
61038;SDS011;46919;45.816;3.104;2023-04-24T14:44:32;3.58;;;1.63;;
61038;SDS011;46919;45.816;3.104;2023-04-24T14:46:58;5.15;;;1.55;;
61038;SDS011;46919;45.816;3.104;2023-04-24T14:49:24;5.70;;;1.85;;
61038;SDS011;46919;45.816;3.104;2023-04-24T14:51:51;8.40;;;1.95;;
61038;SDS011;46919;45.816;3.104;2023-04-24T14:54:16;7.90;;;2.08;;
61038;SDS011;46919;45.816;3.104;2023-04-24T14:56:41;4.47;;;1.80;;
61038;SDS011;46919;45.816;3.104;2023-04-24T14:59:08;5.18;;;1.75;;